Time;durP1;ratioP1;P1;durP2;ratioP2;P2;SDS_P1;SDS_P2;PMS_P1;PMS_P2;Temp;Humidity;BMP_temperature;BMP_pressure;BME280_temperature;BME280_humidity;BME280_pressure;Samples;Min_cycle;Max_cycle;Signal;HPM_P1;HPM_P2
2024/01/22 00:00:16;;;;;;;9.30;6.38;;;7.30;99.90;;;;;;7373025;19;20014;-63
2024/01/22 00:02:43;;;;;;;12.10;5.93;;;7.20;99.90;;;;;;7368672;19;20014;-63
2024/01/22 00:05:10;;;;;;;10.13;6.18;;;7.20;99.90;;;;;;7371484;19;20022;-63
2024/01/22 00:07:38;;;;;;;12.25;6.18;;;7.20;99.90;;;;;;7367485;19;20503;-63
2024/01/22 00:10:06;;;;;;;9.68;6.07;;;7.10;99.90;;;;;;7369591;19;20018;-73
2024/01/22 00:12:33;;;;;;;8.77;5.07;;;7.30;99.90;;;;;;7369500;19;20081;-73
2024/01/22 00:14:59;;;;;;;9.48;6.43;;;7.30;99.90;;;;;;7372552;19;20042;-64
2024/01/22 00:17:25;;;;;;;9.48;6.10;;;7.30;99.90;;;;;;7365386;19;20025;-63
2024/01/22 00:19:51;;;;;;;10.70;5.78;;;7.40;99.90;;;;;;7367900;19;20578;-64
2024/01/22 00:22:18;;;;;;;11.73;6.35;;;7.40;99.90;;;;;;7364648;19;20081;-64
2024/01/22 00:24:44;;;;;;;10.43;5.65;;;7.40;99.90;;;;;;7375643;19;21486;-64
2024/01/22 00:27:10;;;;;;;13.75;6.20;;;7.40;99.90;;;;;;7364881;19;20022;-64
2024/01/22 00:29:37;;;;;;;8.32;6.63;;;7.30;99.90;;;;;;7366467;19;20027;-73
2024/01/22 00:32:03;;;;;;;11.30;6.57;;;7.20;99.90;;;;;;7370069;19;20019;-74
2024/01/22 00:34:30;;;;;;;12.80;6.50;;;7.20;99.90;;;;;;7367256;19;20058;-73
2024/01/22 00:36:58;;;;;;;9.60;6.18;;;7.20;99.90;;;;;;7367562;19;20015;-73
2024/01/22 00:39:25;;;;;;;10.82;5.97;;;7.20;99.90;;;;;;7371565;19;20023;-73
2024/01/22 00:41:51;;;;;;;12.88;6.00;;;7.20;99.90;;;;;;7376299;19;20018;-73
2024/01/22 00:44:18;;;;;;;9.45;5.80;;;7.30;99.90;;;;;;7377380;19;20021;-72
2024/01/22 00:46:44;;;;;;;9.70;5.55;;;7.30;99.90;;;;;;7373465;19;20497;-73
2024/01/22 00:49:10;;;;;;;10.05;5.38;;;7.30;99.90;;;;;;7375519;19;20026;-72
2024/01/22 00:51:39;;;;;;;12.23;5.75;;;7.40;99.90;;;;;;7374945;19;20826;-73
2024/01/22 00:54:06;;;;;;;9.38;5.53;;;7.30;99.90;;;;;;7378061;19;20028;-72
2024/01/22 00:56:33;;;;;;;8.55;5.28;;;7.30;99.90;;;;;;7372199;19;20067;-73
2024/01/22 00:59:01;;;;;;;6.75;4.80;;;7.50;99.90;;;;;;7378541;19;20018;-73
2024/01/22 01:01:30;;;;;;;9.07;4.90;;;7.50;99.90;;;;;;7374038;19;20062;-72
2024/01/22 01:03:57;;;;;;;6.35;5.10;;;7.50;99.90;;;;;;7380669;19;20015;-64
2024/01/22 01:06:23;;;;;;;11.40;5.65;;;7.60;99.90;;;;;;7371167;19;20495;-64
2024/01/22 01:08:49;;;;;;;7.80;4.53;;;7.60;99.90;;;;;;7375959;19;20034;-64
2024/01/22 01:11:16;;;;;;;8.88;5.25;;;7.60;99.90;;;;;;7379634;19;20018;-72
2024/01/22 01:13:43;;;;;;;8.32;4.85;;;7.70;99.90;;;;;;7374841;19;20593;-73
2024/01/22 01:16:10;;;;;;;7.75;5.15;;;7.70;99.90;;;;;;7372173;19;20107;-64
2024/01/22 01:18:36;;;;;;;7.10;4.10;;;7.70;99.90;;;;;;7376715;19;20417;-64
2024/01/22 01:21:02;;;;;;;10.68;6.00;;;7.70;99.90;;;;;;7377129;19;20026;-64
2024/01/22 01:23:29;;;;;;;9.35;5.57;;;7.70;99.90;;;;;;7375484;19;20089;-65
2024/01/22 01:25:55;;;;;;;7.65;4.60;;;7.80;99.90;;;;;;7378881;19;20036;-64
2024/01/22 01:28:21;;;;;;;7.32;4.95;;;7.80;99.90;;;;;;7374448;19;20066;-65
2024/01/22 01:30:50;;;;;;;9.05;4.82;;;7.80;99.90;;;;;;7376500;19;20018;-64
2024/01/22 01:33:16;;;;;;;10.18;5.53;;;7.90;99.90;;;;;;7377420;19;20023;-65
2024/01/22 01:35:44;;;;;;;8.52;5.30;;;7.90;99.90;;;;;;7375968;19;20018;-65
2024/01/22 01:38:11;;;;;;;8.77;5.00;;;7.90;99.90;;;;;;7377553;19;20026;-65
2024/01/22 01:40:41;;;;;;;9.00;5.18;;;7.90;99.90;;;;;;7372882;19;20018;-64
2024/01/22 01:43:07;;;;;;;9.68;4.90;;;7.90;99.90;;;;;;7373711;19;20019;-65
2024/01/22 01:45:33;;;;;;;8.98;4.88;;;7.80;99.90;;;;;;7373586;19;20018;-65
2024/01/22 01:48:00;;;;;;;7.40;5.10;;;7.90;99.90;;;;;;7373622;19;20018;-65
2024/01/22 01:50:27;;;;;;;8.48;5.70;;;7.80;99.90;;;;;;7374680;19;20773;-65
2024/01/22 01:52:53;;;;;;;8.27;5.75;;;7.80;99.90;;;;;;7370032;19;20019;-64
2024/01/22 01:55:21;;;;;;;8.77;5.68;;;7.80;99.90;;;;;;7374545;19;20102;-65
2024/01/22 01:57:49;;;;;;;9.00;5.20;;;7.70;99.90;;;;;;7368851;19;20023;-65
2024/01/22 02:00:16;;;;;;;8.95;6.03;;;7.70;99.90;;;;;;7372174;19;20022;-65
2024/01/22 02:02:46;;;;;;;10.07;6.53;;;7.80;99.90;;;;;;7371569;19;20898;-65
2024/01/22 02:05:13;;;;;;;9.52;6.05;;;7.80;99.90;;;;;;7370063;19;20026;-64
2024/01/22 02:07:39;;;;;;;8.38;6.13;;;7.70;99.90;;;;;;7370175;19;20019;-73
2024/01/22 02:10:10;;;;;;;8.40;6.28;;;7.80;99.90;;;;;;7371504;19;20018;-71
2024/01/22 02:12:36;;;;;;;11.38;6.65;;;7.80;99.90;;;;;;7370719;19;20025;-70
2024/01/22 02:15:03;;;;;;;10.65;6.70;;;7.70;99.90;;;;;;7372830;19;20358;-70
2024/01/22 02:17:30;;;;;;;8.27;5.55;;;7.80;99.90;;;;;;7370921;19;20024;-64
2024/01/22 02:19:57;;;;;;;13.68;6.93;;;7.70;99.90;;;;;;7375583;19;20018;-63
2024/01/22 02:22:24;;;;;;;12.43;7.00;;;7.70;99.90;;;;;;7372777;19;20014;-63
2024/01/22 02:24:50;;;;;;;11.82;6.88;;;7.70;99.90;;;;;;7371839;19;20026;-63
2024/01/22 02:27:20;;;;;;;9.50;6.90;;;7.70;99.90;;;;;;7371341;19;20022;-62
2024/01/22 02:29:46;;;;;;;12.75;6.97;;;7.70;99.90;;;;;;7374826;19;20019;-62
2024/01/22 02:32:13;;;;;;;9.63;7.15;;;7.70;99.90;;;;;;7372402;19;20041;-62
2024/01/22 02:34:39;;;;;;;8.55;5.80;;;7.70;99.90;;;;;;7372221;19;20027;-63
2024/01/22 02:37:05;;;;;;;8.75;6.38;;;7.80;99.90;;;;;;7373518;19;20026;-63
2024/01/22 02:39:32;;;;;;;11.45;6.25;;;7.80;99.90;;;;;;7371820;19;20105;-62
2024/01/22 02:41:58;;;;;;;9.55;6.60;;;7.80;99.90;;;;;;7372782;19;20022;-62
2024/01/22 02:44:24;;;;;;;13.63;7.03;;;7.80;99.90;;;;;;7370194;19;20014;-68
2024/01/22 02:46:51;;;;;;;11.63;6.63;;;7.80;99.90;;;;;;7370414;19;20026;-62
2024/01/22 02:49:18;;;;;;;13.88;7.18;;;7.70;99.90;;;;;;7224692;19;2856877;-62
2024/01/22 02:51:44;;;;;;;9.60;6.75;;;7.70;99.90;;;;;;7374652;19;20018;-62
2024/01/22 02:54:13;;;;;;;12.45;6.85;;;7.80;99.90;;;;;;7374970;19;20018;-62
2024/01/22 02:56:40;;;;;;;9.27;6.38;;;7.80;99.90;;;;;;7366635;19;20019;-67
2024/01/22 02:59:07;;;;;;;9.40;6.28;;;7.80;99.90;;;;;;7372079;19;20130;-62
2024/01/22 03:01:33;;;;;;;10.07;6.03;;;7.80;99.90;;;;;;7375141;19;20046;-67
2024/01/22 03:03:59;;;;;;;9.90;6.68;;;7.80;99.90;;;;;;7369512;19;20079;-67
2024/01/22 03:06:25;;;;;;;13.60;6.95;;;7.80;99.90;;;;;;7374559;19;20795;-62
2024/01/22 03:08:51;;;;;;;9.00;6.72;;;7.90;99.90;;;;;;7371816;19;20348;-67
2024/01/22 03:11:18;;;;;;;12.73;6.72;;;7.80;99.90;;;;;;7372387;19;20039;-67
2024/01/22 03:13:44;;;;;;;10.27;6.32;;;7.90;99.90;;;;;;7371516;19;20018;-62
2024/01/22 03:16:10;;;;;;;8.73;5.90;;;8.00;99.90;;;;;;7370633;19;20023;-67
2024/01/22 03:18:36;;;;;;;10.43;6.25;;;7.90;99.90;;;;;;7373444;19;20026;-67
2024/01/22 03:21:04;;;;;;;9.63;6.20;;;8.00;99.90;;;;;;7373771;19;20077;-68
2024/01/22 03:23:31;;;;;;;9.50;5.68;;;8.10;99.90;;;;;;7371635;19;20022;-63
2024/01/22 03:25:58;;;;;;;11.82;5.97;;;8.10;99.90;;;;;;7369881;19;20090;-63
2024/01/22 03:28:26;;;;;;;9.00;6.25;;;8.00;99.90;;;;;;7366480;19;20018;-63
2024/01/22 03:30:52;;;;;;;10.25;6.38;;;8.10;99.90;;;;;;7373209;19;20022;-63
2024/01/22 03:33:18;;;;;;;8.43;5.88;;;8.10;99.90;;;;;;7373341;19;20582;-63
2024/01/22 03:35:45;;;;;;;10.82;5.80;;;8.20;99.90;;;;;;7372613;19;20359;-68
2024/01/22 03:38:11;;;;;;;10.18;5.57;;;8.30;99.90;;;;;;7370215;19;20018;-63
2024/01/22 03:40:38;;;;;;;6.43;5.47;;;8.10;99.90;;;;;;7373225;19;20123;-63
2024/01/22 03:43:04;;;;;;;9.38;5.75;;;8.20;99.90;;;;;;7370932;19;20022;-63
2024/01/22 03:45:30;;;;;;;8.65;5.93;;;8.20;99.90;;;;;;7372051;19;21017;-63
2024/01/22 03:47:58;;;;;;;12.85;6.68;;;8.20;99.90;;;;;;7364012;19;20018;-63
2024/01/22 03:50:24;;;;;;;6.80;6.03;;;8.10;99.90;;;;;;7368030;19;20146;-70
2024/01/22 03:52:50;;;;;;;9.75;5.97;;;8.20;99.90;;;;;;7371845;19;20954;-70
2024/01/22 03:55:16;;;;;;;8.25;6.00;;;8.20;99.90;;;;;;7373288;19;20101;-64
2024/01/22 03:57:43;;;;;;;9.15;6.60;;;8.30;99.90;;;;;;7370958;19;20070;-63
2024/01/22 04:00:09;;;;;;;7.70;6.18;;;8.30;99.90;;;;;;7372598;19;20039;-63
2024/01/22 04:02:35;;;;;;;11.60;6.82;;;8.30;99.90;;;;;;7369951;19;20025;-64
2024/01/22 04:05:02;;;;;;;9.90;7.13;;;8.20;99.90;;;;;;7369919;19;20019;-63
2024/01/22 04:07:28;;;;;;;10.15;6.75;;;8.30;99.90;;;;;;7372732;19;20014;-68
2024/01/22 04:09:54;;;;;;;7.85;6.18;;;8.30;99.90;;;;;;7364780;19;20014;-69
2024/01/22 04:12:21;;;;;;;8.68;6.63;;;8.30;99.90;;;;;;7370405;19;20030;-69
2024/01/22 04:14:50;;;;;;;8.85;6.07;;;8.30;99.90;;;;;;7371818;19;20018;-69
2024/01/22 04:17:16;;;;;;;8.23;6.72;;;8.40;99.90;;;;;;7369628;19;20018;-69
2024/01/22 04:19:43;;;;;;;10.32;6.35;;;8.40;99.90;;;;;;7364519;19;20018;-62
2024/01/22 04:22:09;;;;;;;7.80;6.70;;;8.50;99.90;;;;;;7370730;19;20029;-63
2024/01/22 04:24:37;;;;;;;8.40;6.38;;;8.60;99.90;;;;;;7365910;19;20019;-68
2024/01/22 04:27:03;;;;;;;8.90;6.25;;;8.60;99.90;;;;;;7363873;19;20054;-69
2024/01/22 04:29:32;;;;;;;8.80;6.90;;;8.60;99.90;;;;;;7365565;19;20055;-69
2024/01/22 04:31:59;;;;;;;8.07;6.30;;;8.70;99.90;;;;;;7365308;19;20022;-68
2024/01/22 04:34:26;;;;;;;8.77;5.78;;;8.60;99.90;;;;;;7366668;19;20014;-68
2024/01/22 04:36:53;;;;;;;7.75;5.50;;;8.60;99.90;;;;;;7366427;19;20035;-68
2024/01/22 04:39:20;;;;;;;8.52;6.45;;;8.70;99.90;;;;;;7360873;19;20018;-68
2024/01/22 04:41:47;;;;;;;6.40;5.72;;;8.70;99.90;;;;;;7371643;19;20092;-68
2024/01/22 04:44:14;;;;;;;7.30;6.25;;;8.80;99.90;;;;;;7370911;19;20019;-69
2024/01/22 04:46:42;;;;;;;8.80;6.10;;;8.80;99.90;;;;;;7365831;19;20327;-69
2024/01/22 04:49:09;;;;;;;9.63;6.28;;;8.90;99.90;;;;;;7364664;19;20010;-69
2024/01/22 04:51:36;;;;;;;6.95;5.38;;;8.80;99.90;;;;;;7367464;19;20018;-63
2024/01/22 04:54:03;;;;;;;9.95;6.03;;;9.00;99.90;;;;;;7367745;19;20020;-63
2024/01/22 04:56:30;;;;;;;8.20;5.53;;;8.90;99.90;;;;;;7367839;19;20078;-70
2024/01/22 04:58:57;;;;;;;9.57;5.20;;;8.90;99.90;;;;;;7366265;19;20025;-68
2024/01/22 05:01:24;;;;;;;6.05;5.22;;;8.90;99.90;;;;;;7362023;19;20022;-63
2024/01/22 05:03:51;;;;;;;5.97;4.70;;;8.90;99.90;;;;;;7367303;19;20019;-70
2024/01/22 05:06:18;;;;;;;7.80;5.50;;;9.00;99.90;;;;;;7365183;19;20018;-70
2024/01/22 05:08:45;;;;;;;5.70;4.70;;;9.10;99.90;;;;;;7367218;19;20018;-69
2024/01/22 05:11:12;;;;;;;6.28;4.40;;;9.20;99.90;;;;;;7366646;19;20022;-69
2024/01/22 05:13:51;;;;;;;7.00;4.65;;;9.20;99.90;;;;;;7364876;19;20483;-70
2024/01/22 05:16:20;;;;;;;6.43;3.90;;;9.30;99.90;;;;;;7362673;19;20780;-70
2024/01/22 05:18:48;;;;;;;5.72;3.78;;;9.30;99.90;;;;;;7366037;19;20926;-69
2024/01/22 05:21:15;;;;;;;4.32;3.47;;;9.40;99.90;;;;;;7363379;19;20064;-64
2024/01/22 05:23:41;;;;;;;5.43;3.40;;;9.50;99.90;;;;;;7368255;19;20015;-63
2024/01/22 05:26:08;;;;;;;6.40;3.50;;;9.60;99.90;;;;;;7362123;19;20495;-63
2024/01/22 05:28:35;;;;;;;4.35;3.08;;;9.60;99.90;;;;;;7371678;19;20022;-63
2024/01/22 05:31:02;;;;;;;5.60;3.10;;;9.60;99.90;;;;;;7370751;19;20015;-64
2024/01/22 05:33:28;;;;;;;5.93;3.17;;;9.60;99.90;;;;;;7373704;19;20015;-64
2024/01/22 05:35:55;;;;;;;5.57;3.33;;;9.70;99.90;;;;;;7371685;19;20038;-69
2024/01/22 05:38:22;;;;;;;4.30;3.00;;;9.70;99.90;;;;;;7370915;19;20876;-69
2024/01/22 05:40:48;;;;;;;4.82;3.05;;;9.90;99.90;;;;;;7370470;19;20502;-69
2024/01/22 05:43:14;;;;;;;5.57;3.10;;;9.80;99.90;;;;;;7373847;19;20019;-70
2024/01/22 05:45:41;;;;;;;3.63;2.45;;;9.80;99.90;;;;;;7367575;19;20094;-69
2024/01/22 05:48:08;;;;;;;4.07;2.45;;;9.80;99.90;;;;;;7375486;19;20794;-69
2024/01/22 05:50:34;;;;;;;3.58;2.50;;;9.80;99.90;;;;;;7374167;19;20018;-70
2024/01/22 05:53:00;;;;;;;4.85;2.05;;;9.90;99.90;;;;;;7374322;19;20045;-70
2024/01/22 05:55:28;;;;;;;2.95;2.10;;;10.00;99.90;;;;;;7373535;19;20765;-71
2024/01/22 05:57:57;;;;;;;3.60;2.17;;;10.10;99.90;;;;;;7376543;19;20030;-71
2024/01/22 06:00:23;;;;;;;3.70;2.25;;;10.10;99.90;;;;;;7374983;19;20371;-70
2024/01/22 06:02:49;;;;;;;3.53;2.00;;;10.10;99.90;;;;;;7375126;19;20062;-65
2024/01/22 06:05:16;;;;;;;3.20;1.95;;;10.10;99.90;;;;;;7374787;19;20862;-64
2024/01/22 06:07:42;;;;;;;3.45;1.50;;;10.10;99.90;;;;;;7371638;19;20019;-64
2024/01/22 06:10:08;;;;;;;3.78;1.67;;;10.20;99.90;;;;;;7366917;19;20022;-64
2024/01/22 06:12:35;;;;;;;3.05;1.83;;;10.20;99.90;;;;;;7369460;19;20022;-64
2024/01/22 06:15:03;;;;;;;4.40;1.65;;;10.30;99.90;;;;;;7370454;19;20097;-64
2024/01/22 06:17:33;;;;;;;3.22;1.80;;;10.30;99.90;;;;;;7365879;19;20117;-64
2024/01/22 06:20:01;;;;;;;3.80;1.50;;;10.30;99.90;;;;;;7371238;19;20093;-64
2024/01/22 06:22:28;;;;;;;4.45;1.58;;;10.30;99.90;;;;;;7368433;19;20010;-65
2024/01/22 06:24:56;;;;;;;3.38;1.60;;;10.40;99.90;;;;;;7372637;19;20093;-63
2024/01/22 06:27:22;;;;;;;4.13;1.30;;;10.60;99.90;;;;;;7371162;19;20026;-71
2024/01/22 06:29:49;;;;;;;3.00;1.25;;;10.60;99.90;;;;;;7367448;19;20889;-70
2024/01/22 06:32:18;;;;;;;3.90;1.65;;;10.60;99.90;;;;;;7369505;19;20026;-64
2024/01/22 06:34:46;;;;;;;3.45;1.30;;;10.70;99.90;;;;;;7371216;19;20022;-65
2024/01/22 06:37:15;;;;;;;5.40;2.15;;;10.70;99.90;;;;;;7369473;19;20098;-65
2024/01/22 06:39:42;;;;;;;4.82;1.60;;;10.60;99.90;;;;;;7370103;19;20766;-65
2024/01/22 06:42:09;;;;;;;2.38;1.67;;;10.70;99.90;;;;;;7369136;19;20045;-65
2024/01/22 06:44:36;;;;;;;4.45;1.20;;;10.70;99.90;;;;;;7373370;19;20541;-65
2024/01/22 06:47:04;;;;;;;4.15;1.63;;;10.70;99.90;;;;;;7371220;19;20436;-71
2024/01/22 06:49:31;;;;;;;3.28;1.38;;;10.70;99.90;;;;;;7372084;19;20029;-71
2024/01/22 06:51:58;;;;;;;4.55;1.80;;;10.70;99.90;;;;;;7371825;19;20240;-70
2024/01/22 06:54:26;;;;;;;6.53;2.00;;;10.70;99.90;;;;;;7370683;19;20085;-71
2024/01/22 06:56:53;;;;;;;5.45;2.08;;;10.70;99.90;;;;;;7373372;19;20011;-71
2024/01/22 06:59:20;;;;;;;9.82;2.75;;;10.70;99.90;;;;;;7372090;19;20014;-64
2024/01/22 07:01:48;;;;;;;8.18;2.58;;;10.70;99.90;;;;;;7370912;19;20029;-65
2024/01/22 07:04:15;;;;;;;8.20;3.13;;;10.70;99.90;;;;;;7370486;19;20024;-64
2024/01/22 07:06:42;;;;;;;10.85;3.40;;;10.60;99.90;;;;;;7369794;19;20023;-70
2024/01/22 07:09:10;;;;;;;7.93;2.53;;;10.60;99.90;;;;;;7372740;19;20070;-71
2024/01/22 07:11:37;;;;;;;14.05;3.45;;;10.60;99.90;;;;;;7368784;19;20102;-72
2024/01/22 07:14:04;;;;;;;14.73;3.22;;;10.60;99.90;;;;;;7371781;19;20018;-71
2024/01/22 07:16:31;;;;;;;14.02;3.45;;;10.50;99.90;;;;;;7369935;19;20018;-64
2024/01/22 07:18:58;;;;;;;12.35;2.90;;;10.50;99.90;;;;;;7372797;19;20024;-71
2024/01/22 07:21:25;;;;;;;15.18;4.20;;;10.60;99.90;;;;;;7367332;19;20725;-64
2024/01/22 07:23:52;;;;;;;16.75;3.47;;;10.60;99.90;;;;;;7373218;19;20024;-64
2024/01/22 07:26:19;;;;;;;17.23;3.40;;;10.60;99.90;;;;;;7368062;19;20092;-70
2024/01/22 07:28:46;;;;;;;12.80;3.78;;;10.50;99.90;;;;;;7370917;19;20026;-70
2024/01/22 07:31:14;;;;;;;13.63;4.03;;;10.50;99.90;;;;;;7367011;19;20497;-64
2024/01/22 07:33:40;;;;;;;20.55;5.05;;;10.50;99.90;;;;;;7369646;19;20105;-64
2024/01/22 07:36:07;;;;;;;18.10;4.15;;;10.50;99.90;;;;;;7373865;19;20021;-71
2024/01/22 07:38:33;;;;;;;19.38;4.28;;;10.50;99.90;;;;;;7370597;19;20550;-71
2024/01/22 07:40:59;;;;;;;22.70;4.40;;;10.50;99.90;;;;;;7367885;19;20852;-70
2024/01/22 07:43:26;;;;;;;21.52;4.35;;;10.50;99.90;;;;;;7372280;19;20033;-71
2024/01/22 07:45:52;;;;;;;15.02;4.78;;;10.50;99.90;;;;;;7369549;19;20045;-70
2024/01/22 07:48:18;;;;;;;19.30;4.75;;;10.50;99.90;;;;;;7370011;19;20220;-70
2024/01/22 07:50:45;;;;;;;16.67;4.35;;;10.60;99.90;;;;;;7364659;19;20014;-70
2024/01/22 07:53:11;;;;;;;20.15;4.90;;;10.60;99.90;;;;;;7370612;19;20018;-64
2024/01/22 07:55:37;;;;;;;16.95;4.45;;;10.60;99.90;;;;;;7369903;19;20014;-63
2024/01/22 07:58:03;;;;;;;20.27;4.85;;;10.60;99.90;;;;;;7373142;19;20059;-63
2024/01/22 08:00:33;;;;;;;14.65;4.32;;;10.60;99.90;;;;;;7367038;19;20019;-64
2024/01/22 08:03:01;;;;;;;16.30;4.13;;;10.60;99.90;;;;;;7367075;19;20479;-63
2024/01/22 08:05:28;;;;;;;21.95;4.80;;;10.60;99.90;;;;;;7369670;19;20026;-63
2024/01/22 08:07:54;;;;;;;19.10;4.78;;;10.50;99.90;;;;;;7367599;19;20018;-63
2024/01/22 08:10:20;;;;;;;21.85;5.25;;;10.50;99.90;;;;;;7363841;19;20360;-63
2024/01/22 08:12:46;;;;;;;21.08;4.28;;;10.50;99.90;;;;;;7362723;19;20018;-63
2024/01/22 08:15:14;;;;;;;13.00;3.97;;;10.50;99.90;;;;;;7366211;19;20045;-61
2024/01/22 08:17:42;;;;;;;26.00;5.63;;;10.40;99.90;;;;;;7362175;19;20025;-62
2024/01/22 08:20:09;;;;;;;22.20;4.82;;;10.50;99.90;;;;;;7371974;19;20011;-66
2024/01/22 08:22:35;;;;;;;15.38;4.47;;;10.40;99.90;;;;;;7368485;19;20023;-66
2024/01/22 08:25:01;;;;;;;19.25;5.68;;;10.50;99.90;;;;;;7370279;19;20041;-66
2024/01/22 08:27:27;;;;;;;16.70;5.70;;;10.60;99.90;;;;;;7370120;19;20022;-67
2024/01/22 08:29:53;;;;;;;21.70;5.10;;;10.50;99.90;;;;;;7369708;19;20062;-67
2024/01/22 08:32:20;;;;;;;18.73;4.85;;;10.50;99.90;;;;;;7367344;19;20806;-66
2024/01/22 08:34:48;;;;;;;19.02;4.35;;;10.50;99.90;;;;;;7370609;19;20019;-66
2024/01/22 08:37:15;;;;;;;16.30;4.75;;;10.50;99.90;;;;;;7371145;19;20027;-66
2024/01/22 08:39:42;;;;;;;15.48;5.68;;;10.50;99.90;;;;;;7367133;19;20018;-67
2024/01/22 08:42:09;;;;;;;16.77;4.82;;;10.70;99.90;;;;;;7371016;19;20376;-62
2024/01/22 08:44:36;;;;;;;16.70;4.63;;;10.50;99.90;;;;;;7365602;19;20014;-62
2024/01/22 08:47:05;;;;;;;17.58;4.25;;;10.60;99.90;;;;;;7367725;19;20617;-62
2024/01/22 08:49:32;;;;;;;18.00;4.45;;;10.50;99.90;;;;;;7362421;19;20049;-64
2024/01/22 08:51:59;;;;;;;14.02;3.85;;;10.30;99.90;;;;;;7366280;19;20487;-65
2024/01/22 08:54:26;;;;;;;18.20;4.55;;;10.40;99.90;;;;;;7367343;19;20822;-66
2024/01/22 08:56:53;;;;;;;16.23;5.88;;;10.30;99.90;;;;;;7370591;19;20052;-68
2024/01/22 08:59:20;;;;;;;16.67;4.63;;;10.30;99.90;;;;;;7371317;19;20022;-67
2024/01/22 09:01:46;;;;;;;17.80;4.30;;;10.30;99.90;;;;;;7371841;19;20810;-67
2024/01/22 09:04:16;;;;;;;19.15;5.00;;;10.30;99.90;;;;;;7378257;19;20793;-67
2024/01/22 09:06:43;;;;;;;20.92;4.82;;;10.30;99.90;;;;;;7380700;19;20025;-66
2024/01/22 09:09:09;;;;;;;16.77;4.72;;;10.10;99.90;;;;;;7373870;19;20605;-65
2024/01/22 09:11:36;;;;;;;26.38;5.78;;;10.10;99.90;;;;;;7377431;19;20022;-65
2024/01/22 09:14:02;;;;;;;31.13;6.15;;;10.10;99.90;;;;;;7374343;19;20119;-64
2024/01/22 09:16:31;;;;;;;34.85;6.43;;;10.00;99.90;;;;;;7374998;19;20014;-65
2024/01/22 09:18:57;;;;;;;37.88;6.65;;;10.10;99.90;;;;;;7374954;19;20095;-66
2024/01/22 09:21:24;;;;;;;34.75;7.00;;;10.00;99.90;;;;;;7377338;19;20515;-66
2024/01/22 09:23:50;;;;;;;39.42;7.68;;;10.00;99.90;;;;;;7368128;19;20018;-65
2024/01/22 09:26:16;;;;;;;36.53;7.50;;;10.00;99.90;;;;;;7371877;19;20605;-66
2024/01/22 09:28:42;;;;;;;36.85;7.28;;;9.80;99.90;;;;;;7370381;19;20018;-67
2024/01/22 09:31:09;;;;;;;32.95;7.68;;;9.80;99.90;;;;;;7369175;19;20026;-66
2024/01/22 09:33:35;;;;;;;41.28;7.95;;;9.80;99.90;;;;;;7368650;19;20019;-65
2024/01/22 09:36:03;;;;;;;37.33;7.95;;;10.00;99.90;;;;;;7373477;19;20452;-67
2024/01/22 09:38:29;;;;;;;54.22;8.60;;;9.80;99.90;;;;;;7371767;19;20369;-67
2024/01/22 09:40:56;;;;;;;35.35;7.72;;;9.80;99.90;;;;;;7373761;19;20026;-65
2024/01/22 09:43:22;;;;;;;40.00;8.05;;;9.80;99.90;;;;;;7374658;19;20032;-65
2024/01/22 09:45:50;;;;;;;44.72;8.98;;;9.80;99.90;;;;;;7375438;19;20031;-65
2024/01/22 09:48:17;;;;;;;46.03;10.10;;;9.80;99.90;;;;;;7376094;19;20376;-65
2024/01/22 09:50:47;;;;;;;47.72;10.05;;;9.80;99.90;;;;;;7372686;19;20014;-65
2024/01/22 09:53:16;;;;;;;47.38;10.18;;;9.90;99.90;;;;;;7371974;19;20030;-65
2024/01/22 09:55:49;;;;;;;42.97;9.93;;;9.80;99.90;;;;;;7374121;19;20105;-67
2024/01/22 09:58:25;;;;;;;50.25;10.55;;;9.70;99.90;;;;;;7370367;19;20738;-68
2024/01/22 10:00:54;;;;;;;54.60;9.82;;;9.80;99.90;;;;;;7368414;19;20019;-67
2024/01/22 10:03:21;;;;;;;54.08;10.55;;;9.70;99.90;;;;;;7368595;19;20018;-67
2024/01/22 10:05:50;;;;;;;52.83;9.98;;;9.70;99.90;;;;;;7367471;19;20025;-67
2024/01/22 10:08:16;;;;;;;53.92;10.40;;;10.10;99.90;;;;;;7374257;19;20028;-67
2024/01/22 10:10:44;;;;;;;45.05;9.75;;;10.10;99.90;;;;;;7370455;19;20022;-68
2024/01/22 10:13:10;;;;;;;54.05;10.52;;;9.90;99.90;;;;;;7372650;19;20041;-68
2024/01/22 10:15:37;;;;;;;45.55;9.95;;;9.80;99.90;;;;;;7374176;19;20078;-68
2024/01/22 10:18:17;;;;;;;46.53;11.18;;;9.80;99.90;;;;;;7373356;19;20026;-68
2024/01/22 10:20:45;;;;;;;50.97;9.05;;;9.70;99.90;;;;;;7372932;19;20508;-69
2024/01/22 10:23:13;;;;;;;37.30;9.48;;;9.60;99.90;;;;;;7371641;19;20997;-68
2024/01/22 10:25:39;;;;;;;45.45;9.50;;;9.70;99.90;;;;;;7373755;19;20083;-68
2024/01/22 10:28:20;;;;;;;52.63;9.73;;;9.60;99.90;;;;;;7370153;19;20830;-69
2024/01/22 10:31:01;;;;;;;51.80;9.60;;;9.80;99.90;;;;;;7370246;19;20024;-68
2024/01/22 10:33:27;;;;;;;47.95;10.82;;;9.80;99.90;;;;;;7371278;19;20035;-70
2024/01/22 10:35:57;;;;;;;49.13;9.85;;;9.80;99.90;;;;;;7371874;19;20118;-68
2024/01/22 10:38:26;;;;;;;48.08;9.13;;;9.70;99.90;;;;;;7367560;19;20014;-69
2024/01/22 10:40:52;;;;;;;48.90;10.82;;;9.70;99.90;;;;;;7369658;19;20014;-69
2024/01/22 10:43:27;;;;;;;45.67;9.68;;;9.60;99.90;;;;;;7365721;19;20022;-69
2024/01/22 10:45:55;;;;;;;52.60;9.77;;;9.50;99.90;;;;;;7365819;19;20018;-69
2024/01/22 10:48:28;;;;;;;45.50;10.05;;;9.60;99.90;;;;;;7369661;19;20766;-69
2024/01/22 10:50:55;;;;;;;44.30;8.38;;;9.50;99.90;;;;;;7365976;19;20556;-69
2024/01/22 10:53:21;;;;;;;48.50;8.68;;;9.40;99.90;;;;;;7366809;19;20742;-69
2024/01/22 10:56:22;;;;;;;45.30;8.68;;;9.40;99.90;;;;;;7367677;19;20843;-66
2024/01/22 10:58:49;;;;;;;44.13;9.85;;;9.30;99.90;;;;;;7371197;19;21010;-66
2024/01/22 11:01:22;;;;;;;47.35;9.45;;;9.30;99.90;;;;;;7366880;19;20023;-69
2024/01/22 11:03:52;;;;;;;43.80;8.55;;;9.30;99.90;;;;;;7372115;19;20018;-69
2024/01/22 11:06:23;;;;;;;40.00;9.00;;;9.30;99.90;;;;;;7372366;19;20025;-66
2024/01/22 11:08:54;;;;;;;41.00;8.98;;;9.50;99.90;;;;;;7370376;19;20034;-65
2024/01/22 11:11:24;;;;;;;50.15;10.00;;;10.10;99.90;;;;;;7372199;19;20015;-66
2024/01/22 11:13:56;;;;;;;35.72;8.20;;;10.20;99.90;;;;;;7372030;19;20045;-66
2024/01/22 11:16:22;;;;;;;34.63;9.13;;;10.70;99.90;;;;;;7375239;19;20018;-65
2024/01/22 11:19:03;;;;;;;36.22;8.40;;;10.70;99.90;;;;;;7373357;19;20018;-65
2024/01/22 11:21:42;;;;;;;33.35;7.78;;;11.10;99.90;;;;;;7371003;19;20022;-66
2024/01/22 11:24:24;;;;;;;37.88;9.50;;;11.40;99.90;;;;;;7372084;19;20018;-66
2024/01/22 11:26:51;;;;;;;34.42;8.75;;;11.60;99.90;;;;;;7375194;19;20023;-66
2024/01/22 11:29:28;;;;;;;37.47;9.05;;;11.80;99.90;;;;;;7368985;19;20025;-66
2024/01/22 11:31:56;;;;;;;36.50;8.77;;;11.80;99.90;;;;;;7373107;19;20511;-67
2024/01/22 11:34:49;;;;;;;33.53;8.68;;;11.90;99.90;;;;;;7373024;19;20645;-66
2024/01/22 11:37:34;;;;;;;32.75;7.55;;;12.10;99.90;;;;;;7370917;19;20089;-66
2024/01/22 11:40:00;;;;;;;35.60;7.50;;;11.90;99.90;;;;;;7371665;19;20022;-66
2024/01/22 11:42:28;;;;;;;42.78;9.35;;;12.20;99.90;;;;;;7371609;19;20423;-66
2024/01/22 11:44:56;;;;;;;32.13;7.70;;;12.10;99.90;;;;;;7371854;19;20509;-66
2024/01/22 11:47:22;;;;;;;36.10;8.80;;;12.30;99.90;;;;;;7371244;19;20021;-66
2024/01/22 11:49:49;;;;;;;33.53;8.70;;;12.20;99.90;;;;;;7369754;19;20082;-65
2024/01/22 11:52:22;;;;;;;30.30;6.97;;;12.50;99.90;;;;;;7372059;19;20019;-66
2024/01/22 11:54:56;;;;;;;30.40;7.85;;;12.90;99.90;;;;;;7368296;19;20034;-66
2024/01/22 11:57:25;;;;;;;31.63;6.72;;;13.20;99.90;;;;;;7373010;19;20044;-66
2024/01/22 12:00:11;;;;;;;27.98;7.25;;;13.10;99.90;;;;;;7372060;19;20025;-66
2024/01/22 12:02:44;;;;;;;29.00;7.40;;;13.40;99.90;;;;;;7369958;19;20014;-66
2024/01/22 12:05:18;;;;;;;29.27;7.57;;;13.70;99.90;;;;;;7373315;19;20019;-71
2024/01/22 12:07:46;;;;;;;28.48;6.40;;;13.90;99.90;;;;;;7372191;19;20569;-72
2024/01/22 12:10:24;;;;;;;24.73;7.13;;;14.00;99.90;;;;;;7374385;19;20028;-72
2024/01/22 12:12:53;;;;;;;26.85;6.63;;;13.80;99.90;;;;;;7372398;19;20063;-72
2024/01/22 12:15:21;;;;;;;21.63;5.28;;;13.50;99.90;;;;;;7367571;19;20033;-72
2024/01/22 12:17:49;;;;;;;26.70;7.20;;;13.20;99.90;;;;;;7368796;19;20763;-73
2024/01/22 12:20:17;;;;;;;29.67;7.43;;;13.40;99.90;;;;;;7368229;19;20026;-72
2024/01/22 12:22:43;;;;;;;23.15;5.68;;;13.80;99.90;;;;;;7370789;19;20015;-73
2024/01/22 12:25:12;;;;;;;25.70;6.72;;;14.00;99.90;;;;;;7367472;19;20038;-66
2024/01/22 12:27:38;;;;;;;21.77;6.03;;;14.30;99.90;;;;;;7368173;19;20848;-66
2024/01/22 12:30:08;;;;;;;21.15;5.43;;;14.40;99.90;;;;;;7369072;19;20018;-62
2024/01/22 12:32:35;;;;;;;23.63;6.43;;;14.80;99.90;;;;;;7365749;19;20094;-61
2024/01/22 12:35:03;;;;;;;26.67;5.88;;;14.60;99.90;;;;;;7366092;19;20023;-64
2024/01/22 12:37:31;;;;;;;24.10;6.47;;;14.50;99.90;;;;;;7373464;19;20042;-64
2024/01/22 12:40:14;;;;;;;25.45;5.80;;;14.40;99.90;;;;;;7374066;19;20082;-64
2024/01/22 12:42:45;;;;;;;26.95;5.80;;;14.10;99.90;;;;;;7375632;19;20011;-64
2024/01/22 12:45:14;;;;;;;26.95;7.18;;;13.30;99.90;;;;;;7375673;19;20746;-66
2024/01/22 12:47:41;;;;;;;28.63;6.25;;;12.50;99.90;;;;;;7373027;19;20019;-66